»·PEaware :: N902SQ KRAL-KSAD

N902SQ :: KRAL-KSAD

FLIGHT INFORMATION

Flight Status: Arrived
Operator: Privately registered:
United States
More flights under this callsign
Pilot: Gabor H. (24209)
Aircraft: SOCATA TBM-900
(TBM9)
More flights by this aircraft type
Origin: KRAL Riverside Mun
United States
Destination: KSAD Safford Regl
United States
More flights between these airports :: More routes between these airports
Route: RAL2 PDZ V186 NIKKL V64 TRM J169 BLH J65 PXR BAXKU
File this flight plan on PilotEdge
Remarks:
Altitude:
(Current/Filed)
27,000ft
Speed:
(Current/Filed)
310kts
Departed: 21-Nov-23 08:10 PM
Arrived: 21-Nov-23 09:38 PM
Distance/Time
Traveled:
396nm/1:28
Distance/Time
To Go:
Arrived

Flight Plot

Page will automatically refresh every two minutes.

Flight plan parsing failed; only flown route is shown


Map Options




Map Legend


Flown Route
Filed Route
Departure Airport
Arrival Airport
Navaid (VOR, NDB)
Fix

Horizontal Profiles

Position Reports

Time Latitude Longitude Heading Altitude Ground
Speed
21-Nov-23 19:50 33.949932 -117.442620 341 818ft 0kts
21-Nov-23 19:51 33.950036 -117.442683 322 818ft 2kts
21-Nov-23 19:52 33.950254 -117.443089 81 818ft 0kts
21-Nov-23 19:53 33.950254 -117.443089 81 818ft 0kts
21-Nov-23 19:54 33.950254 -117.443090 81 818ft 0kts
21-Nov-23 19:55 33.950254 -117.443090 81 818ft 0kts
21-Nov-23 19:56 33.950254 -117.443090 81 818ft 0kts
21-Nov-23 19:57 33.950254 -117.443089 81 818ft 0kts
21-Nov-23 19:58 33.950254 -117.443089 81 818ft 0kts
21-Nov-23 19:59 33.950254 -117.443089 81 818ft 0kts
21-Nov-23 20:00 33.950254 -117.443089 81 818ft 0kts
21-Nov-23 20:01 33.950254 -117.443089 81 818ft 0kts
21-Nov-23 20:02 33.950254 -117.443089 81 818ft 0kts
21-Nov-23 20:03 33.950254 -117.443089 81 818ft 0kts
21-Nov-23 20:04 33.950255 -117.443078 81 818ft 1kts
21-Nov-23 20:05 33.951525 -117.443894 314 818ft 11kts
21-Nov-23 20:06 33.952670 -117.449802 281 818ft 23kts
21-Nov-23 20:07 33.953109 -117.451871 299 818ft 0kts
21-Nov-23 20:08 33.953592 -117.451982 12 818ft 7kts
21-Nov-23 20:09 33.950125 -117.430279 99 1219ft 132kts
21-Nov-23 20:10 33.928429 -117.408662 219 3294ft 139kts
21-Nov-23 20:11 33.896195 -117.407911 141 5423ft 139kts
21-Nov-23 20:12 33.864708 -117.380611 141 7553ft 144kts
21-Nov-23 20:13 33.832366 -117.351829 141 9592ft 148kts
21-Nov-23 20:14 33.798367 -117.321613 141 11607ft 156kts
21-Nov-23 20:15 33.774459 -117.281993 93 13454ft 157kts
21-Nov-23 20:16 33.768361 -117.228746 95 15451ft 164kts
21-Nov-23 20:17 33.761482 -117.173861 95 17337ft 170kts
21-Nov-23 20:18 33.754244 -117.116993 95 19099ft 178kts
21-Nov-23 20:19 33.746638 -117.057657 95 21120ft 183kts
21-Nov-23 20:20 33.738773 -116.996536 94 22896ft 190kts
21-Nov-23 20:21 33.730568 -116.932829 94 24716ft 198kts
21-Nov-23 20:22 33.722116 -116.867649 94 26611ft 201kts
21-Nov-23 20:23 33.712693 -116.794963 94 27388ft 256kts
21-Nov-23 20:24 33.700695 -116.703389 94 27356ft 295kts
21-Nov-23 20:25 33.687395 -116.602480 94 27360ft 313kts
21-Nov-23 20:26 33.673513 -116.497766 95 27350ft 320kts
21-Nov-23 20:27 33.659376 -116.391918 94 27341ft 323kts
21-Nov-23 20:28 33.645080 -116.285563 95 27332ft 323kts
21-Nov-23 20:29 33.630733 -116.179509 95 27328ft 322kts
21-Nov-23 20:30 33.626562 -116.073022 87 27328ft 319kts
21-Nov-23 20:31 33.624610 -115.966408 86 27329ft 319kts
21-Nov-23 20:32 33.622574 -115.859907 86 27328ft 319kts
21-Nov-23 20:33 33.620442 -115.753550 86 27329ft 319kts
21-Nov-23 20:34 33.618211 -115.647276 86 27329ft 318kts
21-Nov-23 20:35 33.615888 -115.541224 86 27329ft 317kts
21-Nov-23 20:36 33.613500 -115.435831 86 27329ft 317kts
21-Nov-23 20:37 33.611005 -115.329962 86 27328ft 316kts
21-Nov-23 20:38 33.608435 -115.224804 86 27328ft 315kts
21-Nov-23 20:39 33.605779 -115.119868 86 27328ft 314kts
21-Nov-23 20:40 33.603058 -115.015229 86 27328ft 313kts
21-Nov-23 20:41 33.600252 -114.911035 86 27328ft 312kts
21-Nov-23 20:42 33.597373 -114.807410 86 27328ft 311kts
21-Nov-23 20:43 33.591017 -114.703777 90 27328ft 313kts
21-Nov-23 20:44 33.581757 -114.599861 89 27329ft 312kts
21-Nov-23 20:45 33.572477 -114.496439 89 27328ft 312kts
21-Nov-23 20:46 33.563154 -114.393510 89 27328ft 311kts
21-Nov-23 20:47 33.553762 -114.290789 90 27329ft 311kts
21-Nov-23 20:48 33.544253 -114.187720 90 27327ft 311kts
21-Nov-23 20:49 33.534651 -114.084609 90 27320ft 311kts
21-Nov-23 20:50 33.524982 -113.981715 90 27313ft 311kts
21-Nov-23 20:51 33.515195 -113.878541 89 27310ft 311kts
21-Nov-23 20:52 33.505352 -113.775622 89 27307ft 310kts
21-Nov-23 20:53 33.495437 -113.672916 89 27312ft 310kts
21-Nov-23 20:54 33.485472 -113.570571 89 27322ft 310kts
21-Nov-23 20:55 33.475371 -113.467716 89 27329ft 310kts
21-Nov-23 20:56 33.465222 -113.365307 89 27330ft 310kts
21-Nov-23 20:57 33.462152 -113.263971 84 27330ft 307kts
21-Nov-23 20:58 33.460338 -113.161647 84 27329ft 307kts
21-Nov-23 20:59 33.458445 -113.059532 84 27329ft 307kts
21-Nov-23 21:00 33.456471 -112.957693 84 27329ft 306kts
21-Nov-23 21:01 33.454408 -112.855531 84 27329ft 306kts
21-Nov-23 21:02 33.452267 -112.753612 84 27329ft 306kts
21-Nov-23 21:03 33.450043 -112.651751 84 27329ft 306kts
21-Nov-23 21:04 33.447735 -112.549863 84 27328ft 306kts
21-Nov-23 21:05 33.445343 -112.447898 84 27325ft 306kts
21-Nov-23 21:06 33.442869 -112.346067 85 27321ft 306kts
21-Nov-23 21:07 33.440312 -112.244061 85 27318ft 307kts
21-Nov-23 21:08 33.437653 -112.141643 85 27314ft 307kts
21-Nov-23 21:09 33.434927 -112.039702 85 27313ft 307kts
21-Nov-23 21:10 33.427463 -111.937427 94 27324ft 313kts
21-Nov-23 21:11 33.410162 -111.835241 94 27332ft 313kts
21-Nov-23 21:12 33.392804 -111.733371 94 27336ft 312kts
21-Nov-23 21:13 33.375423 -111.631891 94 27337ft 312kts
21-Nov-23 21:14 33.357932 -111.530287 94 27341ft 311kts
21-Nov-23 21:15 33.340412 -111.429071 94 27347ft 311kts
21-Nov-23 21:16 33.322788 -111.327704 94 27349ft 311kts
21-Nov-23 21:17 33.305068 -111.226330 94 27350ft 311kts
21-Nov-23 21:18 33.287315 -111.125331 94 27351ft 311kts
21-Nov-23 21:19 33.268781 -111.020110 95 26236ft 332kts
21-Nov-23 21:20 33.249339 -110.910609 96 24722ft 342kts
21-Nov-23 21:21 33.229518 -110.799621 96 23039ft 341kts
21-Nov-23 21:22 33.209858 -110.690042 96 21347ft 334kts
21-Nov-23 21:23 33.190538 -110.582996 97 19646ft 324kts
21-Nov-23 21:24 33.171769 -110.479462 98 17948ft 315kts
21-Nov-23 21:25 33.153383 -110.378622 98 16245ft 308kts
21-Nov-23 21:26 33.133940 -110.281231 110 14862ft 295kts
21-Nov-23 21:27 33.096565 -110.194253 113 13286ft 294kts
21-Nov-23 21:28 33.059726 -110.109007 113 11740ft 284kts
21-Nov-23 21:29 33.022110 -110.027256 129 10220ft 285kts
21-Nov-23 21:30 32.970415 -109.958075 129 8797ft 271kts
21-Nov-23 21:31 32.922207 -109.891490 129 7459ft 262kts
21-Nov-23 21:32 32.876346 -109.827306 129 6215ft 236kts
21-Nov-23 21:33 32.853026 -109.764427 88 4985ft 194kts
21-Nov-23 21:34 32.853934 -109.708409 90 3955ft 140kts
21-Nov-23 21:35 32.854133 -109.670371 88 3639ft 95kts
21-Nov-23 21:36 32.854009 -109.640180 88 3171ft 84kts
21-Nov-23 21:37 32.853311 -109.632068 269 3174ft 6kts
21-Nov-23 21:39 32.853327 -109.635469 271 3169ft 12kts
21-Nov-23 21:40 32.853104 -109.638770 187 3165ft 1kts
21-Nov-23 21:41 32.853032 -109.638774 178 3165ft 0kts
21-Nov-23 21:42 32.853032 -109.638774 178 3165ft 0kts
21-Nov-23 21:43 32.853033 -109.638774 178 3165ft 0kts
21-Nov-23 21:44 32.853033 -109.638774 178 3165ft 0kts
21-Nov-23 21:45 32.853033 -109.638774 178 3165ft 0kts

Navigation Log

Ident Type
Flight plan parsing failed, navigation log unavailable